• Join FlightAware (Why Join?)
  • Login
  • US Flag 
Gobble Gobble! 
03:31AM EST


 

Airport Tracker/Info


-or-


 

Live Flight TrackerFlight Track Log ✈ N14053 ✈ 03-Jun-2013 ✈ KLUF - KUDD

Flight Track Log - Related Links

Times and Time Zones

All times are in EDT time to prevent confusion due to time zone crossing. See the N14053 flight status page for this flight to view local times or setup timezone preferences in your user account.

Time Position Orientation Groundspeed Altitude Reporting Facility
EDT Latitude Longitude Course Direction KTS MPH feet Rate Location/Type
12:05PM 33.6586 -114.3611 266° West 100 115 10,500  Level Albuquerque Center
12:05PM 33.6575 -114.3789 266° West 101 116 10,500 -120 Level Los Angeles Center
12:06PM 33.6489 -114.4122 253° West 104 120 10,400  Descending Los Angeles Center
12:07PM 33.6450 -114.4464 262° West 104 120 10,500 60 Climbing Los Angeles Center
12:08PM 33.6394 -114.4800 259° West 104 120 10,600  Climbing Los Angeles Center
12:10PM 33.6339 -114.5197 260° West 101 116 10,500 -60 Descending Los Angeles Center
12:11PM 33.6289 -114.5536 260° West 105 121 10,500  Level Los Angeles Center
12:12PM 33.6283 -114.5881 269° West 104 120 10,500  Level Los Angeles Center
12:13PM 33.6233 -114.6236 260° West 102 117 10,500  Level Los Angeles Center
12:14PM 33.6231 -114.6558 269° West 105 121 10,500  Level Los Angeles Center
12:15PM 33.6303 -114.6908 284° West 108 124 10,500  Level Los Angeles Center
12:16PM 33.6331 -114.7303 275° West 100 115 10,500  Level Los Angeles Center
12:17PM 33.6347 -114.7636 273° West 100 115 10,500  Level Los Angeles Center
12:18PM 33.6372 -114.7983 275° West 103 119 10,500  Level Los Angeles Center
12:19PM 33.6383 -114.8342 272° West 107 123 10,500  Level Los Angeles Center
12:20PM 33.6464 -114.8789 282° West 112 129 10,500  Level Los Angeles Center
12:21PM 33.6547 -114.9211 283° West 109 125 10,500  Level Los Angeles Center
12:22PM 33.6592 -114.9567 279° West 109 125 10,600  Climbing Los Angeles Center
12:23PM 33.6636 -114.9928 278° West 109 125 10,500 -60 Descending Los Angeles Center
12:24PM 33.6683 -115.0286 279° West 110 127 10,500  Level Los Angeles Center
12:25PM 33.6664 -115.0639 266° West 107 123 10,600  Climbing Los Angeles Center
12:26PM 33.6672 -115.1000 272° West 107 123 10,600 -60 Level Los Angeles Center
12:27PM 33.6800 -115.1456 289° West 116 133 10,500 -120 Descending Los Angeles Center
12:28PM 33.6897 -115.1825 288° West 117 135 10,400 -60 Descending Los Angeles Center
12:29PM 33.6969 -115.2178 284° West 112 129 10,400  Level Los Angeles Center
12:30PM 33.7031 -115.2528 282° West 108 124 10,400  Level Los Angeles Center
12:31PM 33.7056 -115.2819 276° West 109 125 10,500  Climbing Los Angeles Center
12:32PM 33.7067 -115.3339 271° West 111 128 10,400 -60 Descending Los Angeles Center
12:34PM 33.7081 -115.3689 273° West 107 123 10,400 -60 Level Los Angeles Center
12:35PM 33.7044 -115.4050 263° West 107 123 10,300 -120 Descending Los Angeles Center
12:36PM 33.6981 -115.4467 260° West 106 122 10,200 -300 Descending Los Angeles Center
12:37PM 33.6939 -115.4853 263° West 110 127 9,800 -420 Descending Los Angeles Center
12:38PM 33.6908 -115.5261 265° West 117 135 9,400 -360 Descending Los Angeles Center
12:39PM 33.6897 -115.5728 268° West 117 135 9,100 -240 Descending Los Angeles Center
12:40PM 33.6906 -115.6083 272° West 111 128 9,000 -60 Descending Los Angeles Center
12:41PM 33.6911 -115.6439 271° West 109 125 9,000  Level Los Angeles Center
12:42PM 33.6936 -115.6797 275° West 106 122 9,000 -60 Level Los Angeles Center
12:43PM 33.6950 -115.7153 273° West 106 122 8,900 -240 Descending Los Angeles Center
12:44PM 33.6911 -115.7606 264° West 111 128 8,600 -300 Descending Los Angeles Center
12:45PM 33.6889 -115.7989 266° West 114 131 8,300 -300 Descending Los Angeles Center
12:46PM 33.6928 -115.8364 277° West 113 130 8,000 -300 Descending Los Angeles Center
12:47PM 33.6964 -115.8739 277° West 113 130 7,700 -240 Descending Los Angeles Center
12:48PM 33.7011 -115.9100 279° West 112 129 7,500 -240 Descending Los Angeles Center
12:49PM 33.7064 -115.9433 281° West 108 124 7,300 -240 Descending Los Angeles Center